createdAt,value
2023-08-07T00:00:30.548Z,98197.41
2023-08-07T00:03:32.618Z,98195.63
2023-08-07T00:06:34.630Z,98207.16
2023-08-07T00:09:36.491Z,98201.00
2023-08-07T00:12:38.513Z,98193.84
2023-08-07T00:15:40.818Z,98209.13
2023-08-07T00:18:42.782Z,98196.44
2023-08-07T00:21:44.783Z,98208.00
2023-08-07T00:24:46.632Z,98187.34
2023-08-07T00:27:48.463Z,98193.00
2023-08-07T00:30:50.604Z,98201.47
2023-08-07T00:33:55.154Z,98211.41
2023-08-07T00:36:57.168Z,98213.69
2023-08-07T00:39:59.248Z,98212.56
2023-08-07T00:43:01.091Z,98217.28
2023-08-07T00:46:03.636Z,98221.84
2023-08-07T00:49:06.390Z,98229.13
2023-08-07T00:52:09.125Z,98233.53
2023-08-07T00:55:11.197Z,98237.09
2023-08-07T00:58:13.285Z,98227.19
2023-08-07T01:01:15.793Z,98226.19
2023-08-07T01:04:17.779Z,98224.59
2023-08-07T01:07:19.812Z,98227.50
2023-08-07T01:10:51.086Z,98234.81
2023-08-07T01:14:06.843Z,98243.28
2023-08-07T01:17:27.860Z,98241.66
2023-08-07T01:20:29.940Z,98249.59
2023-08-07T01:23:31.935Z,98256.25
2023-08-07T01:26:36.235Z,98257.75
2023-08-07T01:29:45.162Z,98257.88
2023-08-07T01:33:23.873Z,98254.63
2023-08-07T01:36:29.763Z,98249.59
2023-08-07T01:39:32.641Z,98237.91
2023-08-07T01:42:36.567Z,98246.34
2023-08-07T01:45:38.577Z,98243.56
2023-08-07T01:48:40.519Z,98249.13
2023-08-07T01:51:42.504Z,98254.97
2023-08-07T01:54:44.530Z,98250.41
2023-08-07T01:57:46.687Z,98252.84
2023-08-07T02:00:48.579Z,98255.75
2023-08-07T02:03:50.490Z,98261.59
2023-08-07T02:06:52.579Z,98267.44
2023-08-07T02:09:56.520Z,98269.06
2023-08-07T02:13:00.525Z,98262.69
2023-08-07T02:16:03.387Z,98269.81
2023-08-07T02:19:05.298Z,98271.00
2023-08-07T02:22:07.221Z,98269.34
2023-08-07T02:25:09.616Z,98276.19
2023-08-07T02:28:13.860Z,98272.41
2023-08-07T02:31:15.839Z,98277.44
2023-08-07T02:34:17.725Z,98282.53
2023-08-07T02:37:19.911Z,98281.50
2023-08-07T02:40:21.809Z,98282.00
2023-08-07T02:43:23.782Z,98282.53
2023-08-07T02:46:25.740Z,98289.34
2023-08-07T02:49:27.664Z,98284.47
2023-08-07T02:52:29.588Z,98286.72
2023-08-07T02:55:31.413Z,98285.44
2023-08-07T02:58:33.569Z,98288.69
2023-08-07T03:01:35.576Z,98288.03
2023-08-07T03:04:37.582Z,98295.16
2023-08-07T03:07:39.515Z,98291.75
2023-08-07T03:10:41.496Z,98301.00
2023-08-07T03:13:45.279Z,98294.22
2023-08-07T03:16:47.371Z,98303.63
2023-08-07T03:19:50.481Z,98312.00
2023-08-07T03:22:52.780Z,98314.34
2023-08-07T03:26:24.161Z,98331.13
2023-08-07T03:29:26.583Z,98335.91
2023-08-07T03:32:28.582Z,98338.38
2023-08-07T03:35:31.054Z,98338.50
2023-08-07T03:38:32.963Z,98328.09
2023-08-07T03:41:35.458Z,98331.22
2023-08-07T03:44:37.433Z,98322.63
2023-08-07T03:47:39.411Z,98322.34
2023-08-07T03:50:41.432Z,98335.94
2023-08-07T03:53:44.381Z,98342.94
2023-08-07T03:56:47.994Z,98337.94
2023-08-07T03:59:49.912Z,98353.03
2023-08-07T04:02:51.781Z,98349.00
2023-08-07T04:05:55.112Z,98353.53
2023-08-07T04:08:58.051Z,98356.44
2023-08-07T04:12:00.019Z,98350.25
2023-08-07T04:15:01.953Z,98352.78
2023-08-07T04:18:03.957Z,98350.66
2023-08-07T04:21:05.825Z,98357.50
2023-08-07T04:24:11.879Z,98353.16
2023-08-07T04:27:13.825Z,98351.88
2023-08-07T04:30:15.802Z,98353.81
2023-08-07T04:33:17.708Z,98348.16
2023-08-07T04:36:19.655Z,98357.72
2023-08-07T04:39:22.075Z,98354.94
2023-08-07T04:42:23.971Z,98348.78
2023-08-07T04:45:26.002Z,98354.66
2023-08-07T04:48:27.999Z,98364.25
2023-08-07T04:51:31.700Z,98352.09
2023-08-07T04:54:33.638Z,98356.38
2023-08-07T04:57:35.523Z,98352.50
2023-08-07T05:00:37.884Z,98362.75
2023-08-07T05:03:39.912Z,98362.41
2023-08-07T05:06:42.112Z,98369.09
2023-08-07T05:09:44.027Z,98366.19
2023-08-07T05:12:45.906Z,98374.78
2023-08-07T05:15:50.725Z,98364.88
2023-08-07T05:18:52.640Z,98366.97
2023-08-07T05:21:54.801Z,98367.78
2023-08-07T05:24:56.873Z,98371.69
2023-08-07T05:27:58.742Z,98374.63
2023-08-07T05:31:00.821Z,98384.09
2023-08-07T05:34:03.001Z,98374.44
2023-08-07T05:37:05.514Z,98380.16
2023-08-07T05:40:08.247Z,98386.50
2023-08-07T05:43:10.330Z,98386.28
2023-08-07T05:46:12.274Z,98386.75
2023-08-07T05:49:14.123Z,98389.81
2023-08-07T05:52:16.025Z,98388.31
2023-08-07T05:55:17.975Z,98396.56
2023-08-07T05:58:20.192Z,98394.97
2023-08-07T06:01:22.220Z,98399.72
2023-08-07T06:04:24.429Z,98395.41
2023-08-07T06:07:26.981Z,98394.25
2023-08-07T06:10:28.910Z,98402.06
2023-08-07T06:13:36.471Z,98403.97
2023-08-07T06:16:38.682Z,98402.56
2023-08-07T06:19:40.529Z,98405.19
2023-08-07T06:22:42.465Z,98408.63
2023-08-07T06:25:44.414Z,98414.63
2023-08-07T06:28:46.522Z,98414.13
2023-08-07T06:31:48.738Z,98417.03
2023-08-07T06:34:50.696Z,98411.38
2023-08-07T06:37:52.549Z,98420.16
2023-08-07T06:40:54.506Z,98419.53
2023-08-07T06:43:56.558Z,98420.63
2023-08-07T06:46:58.436Z,98427.25
2023-08-07T06:50:00.293Z,98430.53
2023-08-07T06:53:02.167Z,98435.59
2023-08-07T06:56:04.230Z,98432.13
2023-08-07T06:59:06.170Z,98435.25
2023-08-07T07:02:08.180Z,98438.88
2023-08-07T07:05:10.150Z,98433.66
2023-08-07T07:08:12.060Z,98434.47
2023-08-07T07:11:14.010Z,98431.06
2023-08-07T07:14:15.933Z,98437.22
2023-08-07T07:17:17.784Z,98442.84
2023-08-07T07:20:20.018Z,98441.00
2023-08-07T07:23:22.095Z,98445.13
2023-08-07T07:26:24.014Z,98442.19
2023-08-07T07:29:25.957Z,98440.81
2023-08-07T07:32:27.954Z,98450.91
2023-08-07T07:35:29.852Z,98448.72
2023-08-07T07:38:31.725Z,98449.88
2023-08-07T07:41:33.636Z,98462.66
2023-08-07T07:44:39.849Z,98461.63
2023-08-07T07:47:42.115Z,98456.91
2023-08-07T07:50:44.123Z,98460.88
2023-08-07T07:53:46.877Z,98463.13
2023-08-07T07:56:49.913Z,98475.75
2023-08-07T07:59:53.273Z,98466.22
2023-08-07T08:02:55.664Z,98475.00
2023-08-07T08:05:57.732Z,98474.78
2023-08-07T08:09:00.628Z,98480.94
2023-08-07T08:12:02.514Z,98487.00
2023-08-07T08:15:05.293Z,98488.09
2023-08-07T08:18:07.511Z,98489.75
2023-08-07T08:21:09.773Z,98492.06
2023-08-07T08:24:11.727Z,98491.97
2023-08-07T08:27:13.701Z,98498.69
2023-08-07T08:30:15.571Z,98502.38
2023-08-07T08:33:18.762Z,98501.72
2023-08-07T08:36:20.735Z,98493.78
2023-08-07T08:39:22.952Z,98506.09
2023-08-07T08:42:25.290Z,98502.91
2023-08-07T08:45:28.455Z,98496.88
2023-08-07T08:48:35.496Z,98491.56
2023-08-07T08:51:38.431Z,98501.13
2023-08-07T08:54:41.577Z,98493.16
2023-08-07T08:57:43.521Z,98504.53
2023-08-07T09:00:46.594Z,98502.91
2023-08-07T09:03:48.855Z,98496.50
2023-08-07T09:06:51.169Z,98504.88
2023-08-07T09:09:54.400Z,98507.97
2023-08-07T09:13:06.826Z,98506.91
2023-08-07T09:16:10.034Z,98519.31
2023-08-07T09:19:11.928Z,98507.72
2023-08-07T09:22:14.010Z,98506.59
2023-08-07T09:25:16.149Z,98518.66
2023-08-07T09:28:18.154Z,98523.66
2023-08-07T09:31:21.714Z,98522.75
2023-08-07T09:34:25.019Z,98523.66
2023-08-07T09:37:26.957Z,98530.25
2023-08-07T09:40:30.521Z,98544.31
2023-08-07T09:43:38.489Z,98556.91
2023-08-07T09:46:45.040Z,98557.56
2023-08-07T09:49:47.235Z,98561.00
2023-08-07T09:52:52.625Z,98555.38
2023-08-07T09:55:55.784Z,98536.66
2023-08-07T09:58:59.859Z,98551.09
2023-08-07T10:02:03.446Z,98552.69
2023-08-07T10:05:10.126Z,98545.03
2023-08-07T10:08:13.104Z,98543.38
2023-08-07T10:11:18.322Z,98542.28
2023-08-07T10:14:20.360Z,98536.94
2023-08-07T10:17:26.060Z,98544.38
2023-08-07T10:20:29.800Z,98545.06
2023-08-07T10:23:33.453Z,98544.59
2023-08-07T10:26:37.941Z,98552.94
2023-08-07T10:29:40.818Z,98552.88
2023-08-07T10:32:44.792Z,98555.53
2023-08-07T10:35:49.377Z,98560.25
2023-08-07T10:38:54.395Z,98553.28
2023-08-07T10:41:56.647Z,98565.47
2023-08-07T10:45:02.676Z,98570.75
2023-08-07T10:48:14.150Z,98574.19
2023-08-07T10:51:18.543Z,98583.34
2023-08-07T10:54:20.502Z,98582.66
2023-08-07T10:57:24.225Z,98584.81
2023-08-07T11:00:29.279Z,98594.44
2023-08-07T11:03:36.489Z,98593.97
2023-08-07T11:06:39.836Z,98598.97
2023-08-07T11:09:43.108Z,98600.16
2023-08-07T11:12:45.069Z,98603.09
2023-08-07T11:15:48.247Z,98603.47
2023-08-07T11:18:50.998Z,98603.00
2023-08-07T11:21:55.407Z,98611.56
2023-08-07T11:24:57.410Z,98608.88
2023-08-07T11:28:00.380Z,98611.69
2023-08-07T11:31:02.773Z,98615.28
2023-08-07T11:34:05.013Z,98618.75
2023-08-07T11:37:06.947Z,98625.28
2023-08-07T11:40:09.709Z,98633.97
2023-08-07T11:43:11.554Z,98636.75
2023-08-07T11:46:15.743Z,98638.50
2023-08-07T11:49:17.758Z,98635.75
2023-08-07T11:52:19.833Z,98626.31
2023-08-07T11:55:21.878Z,98643.97
2023-08-07T11:58:26.530Z,98635.34
2023-08-07T12:01:29.047Z,98649.25
2023-08-07T12:04:36.382Z,98651.09
2023-08-07T12:07:39.083Z,98662.25
2023-08-07T12:10:42.143Z,98654.94
2023-08-07T12:13:46.330Z,98660.19
2023-08-07T12:16:48.850Z,98662.81
2023-08-07T12:19:51.621Z,98661.97
2023-08-07T12:22:53.568Z,98666.38
2023-08-07T12:25:56.034Z,98663.31
2023-08-07T12:28:57.896Z,98659.53
2023-08-07T12:32:02.232Z,98663.44
2023-08-07T12:38:10.584Z,98677.31
2023-08-07T12:44:17.889Z,98681.59
2023-08-07T12:47:19.842Z,98689.03
2023-08-07T12:50:21.810Z,98693.50
2023-08-07T12:53:23.915Z,98680.03
2023-08-07T12:56:25.879Z,98690.25
2023-08-07T12:59:27.791Z,98702.25
2023-08-07T13:02:29.784Z,98696.84
2023-08-07T13:05:32.492Z,98694.72
2023-08-07T13:08:35.954Z,98700.91
2023-08-07T13:11:37.914Z,98699.28
2023-08-07T13:14:39.797Z,98689.97
2023-08-07T13:17:42.819Z,98698.59
2023-08-07T13:20:44.833Z,98694.84
2023-08-07T13:23:46.765Z,98698.50
2023-08-07T13:26:49.353Z,98698.81
2023-08-07T13:29:51.344Z,98694.25
2023-08-07T13:32:53.320Z,98700.06
2023-08-07T13:35:55.380Z,98694.63
2023-08-07T13:38:57.378Z,98709.13
2023-08-07T13:42:00.986Z,98712.50
2023-08-07T13:45:03.179Z,98710.84
2023-08-07T13:48:07.620Z,98708.97
2023-08-07T13:51:10.105Z,98714.88
2023-08-07T13:54:12.094Z,98715.56
2023-08-07T13:57:13.959Z,98722.69
2023-08-07T14:00:16.033Z,98725.94
2023-08-07T14:03:18.128Z,98716.16
2023-08-07T14:06:20.290Z,98722.50
2023-08-07T14:09:23.109Z,98717.00
2023-08-07T14:12:25.177Z,98722.69
2023-08-07T14:15:27.091Z,98718.69
2023-08-07T14:18:29.135Z,98732.09
2023-08-07T14:21:31.121Z,98726.69
2023-08-07T14:24:33.013Z,98736.13
2023-08-07T14:27:35.013Z,98733.50
2023-08-07T14:30:37.207Z,98741.06
2023-08-07T14:33:39.646Z,98742.53
2023-08-07T14:36:41.994Z,98737.63
2023-08-07T14:39:43.874Z,98739.59
2023-08-07T14:42:46.387Z,98739.59
2023-08-07T14:45:48.403Z,98738.75
2023-08-07T14:48:50.676Z,98742.53
2023-08-07T14:51:52.706Z,98748.53
2023-08-07T14:54:58.531Z,98739.22
2023-08-07T14:58:00.420Z,98741.81
2023-08-07T15:01:02.313Z,98742.16
2023-08-07T15:04:04.415Z,98738.66
2023-08-07T15:07:06.667Z,98745.16
2023-08-07T15:10:09.846Z,98746.06
2023-08-07T15:13:11.776Z,98743.16
2023-08-07T15:16:13.840Z,98745.13
2023-08-07T15:19:15.862Z,98741.06
2023-08-07T15:22:17.860Z,98748.91
2023-08-07T15:25:19.759Z,98747.78
2023-08-07T15:28:21.886Z,98745.94
2023-08-07T15:31:24.267Z,98744.16
2023-08-07T15:34:26.465Z,98746.13
2023-08-07T15:37:28.498Z,98749.88
2023-08-07T15:40:30.483Z,98761.44
2023-08-07T15:43:32.393Z,98758.34
2023-08-07T15:46:34.362Z,98761.63
2023-08-07T15:49:36.329Z,98755.59
2023-08-07T15:52:38.403Z,98753.31
2023-08-07T15:55:40.376Z,98759.00
2023-08-07T15:58:42.303Z,98758.13
2023-08-07T16:01:44.271Z,98756.13
2023-08-07T16:04:46.312Z,98748.06
2023-08-07T16:07:50.441Z,98750.19
2023-08-07T16:10:53.873Z,98758.09
2023-08-07T16:13:55.779Z,98758.94
2023-08-07T16:17:00.192Z,98758.94
2023-08-07T16:20:02.274Z,98760.94
2023-08-07T16:23:04.883Z,98766.09
2023-08-07T16:26:07.216Z,98770.47
2023-08-07T16:29:09.173Z,98778.66
2023-08-07T16:32:11.041Z,98779.97
2023-08-07T16:35:13.986Z,98795.53
2023-08-07T16:38:15.958Z,98788.72
2023-08-07T16:41:17.876Z,98782.56
2023-08-07T16:44:19.848Z,98797.69
2023-08-07T16:47:21.713Z,98799.41
2023-08-07T16:50:26.483Z,98797.59
2023-08-07T16:53:28.371Z,98789.13
2023-08-07T16:56:30.275Z,98799.03
2023-08-07T16:59:32.240Z,98798.47
2023-08-07T17:02:34.325Z,98793.03
2023-08-07T17:05:36.316Z,98792.56
2023-08-07T17:08:38.491Z,98806.88
2023-08-07T17:11:40.568Z,98804.78
2023-08-07T17:14:42.477Z,98813.88
2023-08-07T17:17:44.470Z,98814.03
2023-08-07T17:20:46.391Z,98823.50
2023-08-07T17:23:49.011Z,98825.34
2023-08-07T17:26:51.025Z,98834.16
2023-08-07T17:29:54.998Z,98832.59
2023-08-07T17:32:58.172Z,98834.03
2023-08-07T17:36:00.952Z,98832.94
2023-08-07T17:39:02.926Z,98822.53
2023-08-07T17:42:05.233Z,98829.75
2023-08-07T17:45:07.815Z,98828.25
2023-08-07T17:48:09.964Z,98829.25
2023-08-07T17:51:14.659Z,98834.94
2023-08-07T17:54:16.707Z,98829.88
2023-08-07T17:57:18.751Z,98839.47
2023-08-07T18:00:20.727Z,98839.34
2023-08-07T18:03:22.713Z,98844.81
2023-08-07T18:06:24.714Z,98850.19
2023-08-07T18:09:27.473Z,98860.03
2023-08-07T18:12:29.604Z,98863.78
2023-08-07T18:15:31.507Z,98875.66
2023-08-07T18:18:34.098Z,98878.78
2023-08-07T18:21:36.020Z,98880.56
2023-08-07T18:24:38.035Z,98889.63
2023-08-07T18:27:40.056Z,98901.13
2023-08-07T18:30:42.036Z,98895.94
2023-08-07T18:33:43.883Z,98897.44
2023-08-07T18:36:47.063Z,98904.41
2023-08-07T18:39:48.974Z,98908.66
2023-08-07T18:42:50.853Z,98921.91
2023-08-07T18:45:52.856Z,98930.81
2023-08-07T18:48:55.619Z,98936.81
2023-08-07T18:51:57.561Z,98947.47
2023-08-07T18:54:59.426Z,98948.81
2023-08-07T18:58:02.880Z,98948.16
2023-08-07T19:01:06.750Z,98952.25
2023-08-07T19:04:08.726Z,98954.44
2023-08-07T19:07:11.012Z,98958.22
2023-08-07T19:10:13.011Z,98955.09
2023-08-07T19:13:15.526Z,98960.47
2023-08-07T19:16:17.393Z,98959.69
2023-08-07T19:19:19.360Z,98968.03
2023-08-07T19:22:21.203Z,98972.19
2023-08-07T19:25:23.114Z,98969.28
2023-08-07T19:28:25.070Z,98990.34
2023-08-07T19:31:27.023Z,98988.88
2023-08-07T19:34:29.090Z,98989.25
2023-08-07T19:37:31.534Z,98989.25
2023-08-07T19:40:33.501Z,98993.91
2023-08-07T19:43:35.381Z,98994.72
2023-08-07T19:46:37.340Z,98994.88
2023-08-07T19:49:39.252Z,98994.56
2023-08-07T19:52:41.378Z,98987.44
2023-08-07T19:55:43.298Z,98993.44
2023-08-07T19:58:45.149Z,98995.63
2023-08-07T20:01:47.015Z,98999.72
2023-08-07T20:04:48.974Z,98994.16
2023-08-07T20:07:50.974Z,98989.88
2023-08-07T20:10:52.970Z,98995.69
2023-08-07T20:13:54.901Z,98997.44
2023-08-07T20:16:56.774Z,98999.19
2023-08-07T20:19:58.762Z,99007.97
2023-08-07T20:23:00.781Z,99015.66
2023-08-07T20:26:02.781Z,99013.34
2023-08-07T20:29:04.877Z,99010.06
2023-08-07T20:32:07.077Z,99011.03
2023-08-07T20:35:09.515Z,99011.16
2023-08-07T20:38:11.486Z,99010.88
2023-08-07T20:41:13.479Z,99018.81
2023-08-07T20:44:15.333Z,99022.00
2023-08-07T20:47:17.318Z,99022.66
2023-08-07T20:50:19.320Z,99031.25
2023-08-07T20:53:21.219Z,99037.03
2023-08-07T20:56:23.200Z,99035.09
2023-08-07T20:59:25.178Z,99038.91
2023-08-07T21:02:27.329Z,99038.66
2023-08-07T21:05:29.454Z,99041.66
2023-08-07T21:08:31.607Z,99038.09
2023-08-07T21:11:33.998Z,99033.56
2023-08-07T21:14:36.082Z,99032.22
2023-08-07T21:17:38.255Z,99033.16
2023-08-07T21:20:40.501Z,99034.25
2023-08-07T21:23:42.601Z,99034.13
2023-08-07T21:26:44.786Z,99041.25
2023-08-07T21:29:46.917Z,99031.00
2023-08-07T21:32:49.186Z,99037.16
2023-08-07T21:35:51.588Z,99044.13
2023-08-07T21:38:54.134Z,99039.75
2023-08-07T21:41:56.717Z,99044.56
2023-08-07T21:44:59.096Z,99047.97
2023-08-07T21:48:01.321Z,99058.78
2023-08-07T21:51:03.538Z,99046.59
2023-08-07T21:54:05.658Z,99045.91
2023-08-07T21:57:08.081Z,99040.31
2023-08-07T22:00:15.483Z,99044.69
2023-08-07T22:03:17.877Z,99045.34
2023-08-07T22:06:20.285Z,99041.38
2023-08-07T22:09:22.456Z,99050.97
2023-08-07T22:12:24.661Z,99047.97
2023-08-07T22:15:26.935Z,99048.09
2023-08-07T22:18:29.129Z,99053.16
2023-08-07T22:21:31.307Z,99052.47
2023-08-07T22:24:33.444Z,99058.78
2023-08-07T22:27:35.420Z,99058.63
2023-08-07T22:30:37.338Z,99050.41
2023-08-07T22:33:39.311Z,99052.19
2023-08-07T22:36:41.541Z,99057.09
2023-08-07T22:39:43.459Z,99059.84
2023-08-07T22:42:45.401Z,99059.19
2023-08-07T22:45:50.828Z,99061.94
2023-08-07T22:48:53.963Z,99067.13
2023-08-07T22:51:56.080Z,99069.88
2023-08-07T22:54:58.290Z,99062.75
2023-08-07T22:58:00.269Z,99066.28
2023-08-07T23:01:02.508Z,99067.13
2023-08-07T23:04:04.704Z,99068.09
2023-08-07T23:07:06.655Z,99076.16
2023-08-07T23:10:08.909Z,99069.97
2023-08-07T23:13:10.841Z,99072.72
2023-08-07T23:16:12.754Z,99069.81
2023-08-07T23:19:14.755Z,99086.25
2023-08-07T23:22:16.678Z,99082.81
2023-08-07T23:25:18.589Z,99084.88
2023-08-07T23:28:20.427Z,99096.81
2023-08-07T23:31:22.638Z,99102.00
2023-08-07T23:34:24.729Z,99101.28
2023-08-07T23:37:26.899Z,99107.13
2023-08-07T23:40:28.839Z,99112.06
2023-08-07T23:43:30.713Z,99112.63
2023-08-07T23:46:32.698Z,99111.00
2023-08-07T23:49:34.815Z,99119.88
2023-08-07T23:52:38.183Z,99114.28
2023-08-07T23:55:40.153Z,99118.78
2023-08-07T23:58:42.317Z,99121.78
